To NAV CANADA Home Page Login to a new session Search on AWWS site Feedback and Comments Disclaimer Vers la page française équivalente Tips FAQ What's new on the site To the Forecasts and Observations / NOTAM section To "File a Flight Plan" website Publications and other links Update of the User's profile FIC Telephone Numbers My Weather Data Folder Route Weather Data Regional Weather Data Local Weather Data To the Forecasts and Observations / NOTAM section
Request Generated 09/05/2015 at 05:39:48 UTC . Weather information available at that time is displayed.

METAR/TAF

CAPE DORSET/NU    

METAR CYTE 050500Z AUTO 32006KT 9SM CLR 03/M00 A3013 RMK SLP205=
METAR CYTE 050400Z AUTO 33006KT 280V360 9SM CLR 03/00 A3010 RMK
SLP197=
METAR CYTE 050300Z AUTO 33012KT 9SM FEW027 03/01 A3008 RMK SLP188=

TAF CYTE 050038Z 0501/0513 34015G25KT P6SM OVC020 TEMPO 0501/0504
SCT020
FM050400 34015KT P6SM FEW020
BECMG 0507/0509 30010KT
RMK FCST BASED ON AUTO OBS. NXT FCST BY 050700Z=
Your time UTC time
Weather data provided by Environment Canada and NAV CANADA